sensor_id;sensor_type;location;lat;lon;timestamp;P1;durP1;ratioP1;P2;durP2;ratioP2
6392;SDS011;3229;42.674;23.282;2022-12-07T00:01:05;27.13;;;17.53;;
6392;SDS011;3229;42.674;23.282;2022-12-07T00:03:33;31.37;;;18.03;;
6392;SDS011;3229;42.674;23.282;2022-12-07T00:06:00;24.77;;;17.97;;
6392;SDS011;3229;42.674;23.282;2022-12-07T00:08:27;28.20;;;18.00;;
6392;SDS011;3229;42.674;23.282;2022-12-07T00:10:58;26.43;;;18.13;;
6392;SDS011;3229;42.674;23.282;2022-12-07T00:13:27;28.27;;;17.77;;
6392;SDS011;3229;42.674;23.282;2022-12-07T00:15:54;24.30;;;17.40;;
6392;SDS011;3229;42.674;23.282;2022-12-07T00:18:20;28.53;;;18.47;;
6392;SDS011;3229;42.674;23.282;2022-12-07T00:20:47;23.97;;;17.77;;
6392;SDS011;3229;42.674;23.282;2022-12-07T00:23:14;25.63;;;17.03;;
6392;SDS011;3229;42.674;23.282;2022-12-07T00:25:41;34.63;;;18.30;;
6392;SDS011;3229;42.674;23.282;2022-12-07T00:28:09;31.23;;;18.77;;
6392;SDS011;3229;42.674;23.282;2022-12-07T00:30:36;28.90;;;18.10;;
6392;SDS011;3229;42.674;23.282;2022-12-07T00:33:02;25.30;;;16.57;;
6392;SDS011;3229;42.674;23.282;2022-12-07T00:35:29;24.53;;;16.63;;
6392;SDS011;3229;42.674;23.282;2022-12-07T00:37:56;24.17;;;16.77;;
6392;SDS011;3229;42.674;23.282;2022-12-07T00:40:23;27.10;;;17.07;;
6392;SDS011;3229;42.674;23.282;2022-12-07T00:42:49;25.90;;;17.37;;
6392;SDS011;3229;42.674;23.282;2022-12-07T00:45:18;25.97;;;18.27;;
6392;SDS011;3229;42.674;23.282;2022-12-07T00:47:44;29.77;;;18.87;;
6392;SDS011;3229;42.674;23.282;2022-12-07T00:50:11;27.57;;;17.83;;
6392;SDS011;3229;42.674;23.282;2022-12-07T00:52:38;26.73;;;18.07;;
6392;SDS011;3229;42.674;23.282;2022-12-07T00:55:05;28.83;;;18.13;;
6392;SDS011;3229;42.674;23.282;2022-12-07T00:57:32;27.43;;;17.03;;
6392;SDS011;3229;42.674;23.282;2022-12-07T00:59:59;28.90;;;17.63;;
6392;SDS011;3229;42.674;23.282;2022-12-07T01:02:27;28.53;;;16.93;;
6392;SDS011;3229;42.674;23.282;2022-12-07T01:04:54;25.83;;;17.03;;
6392;SDS011;3229;42.674;23.282;2022-12-07T01:07:20;23.20;;;16.20;;
6392;SDS011;3229;42.674;23.282;2022-12-07T01:09:47;25.70;;;17.27;;
6392;SDS011;3229;42.674;23.282;2022-12-07T01:12:14;28.00;;;17.80;;
6392;SDS011;3229;42.674;23.282;2022-12-07T01:14:41;29.97;;;18.50;;
6392;SDS011;3229;42.674;23.282;2022-12-07T01:17:08;26.67;;;17.73;;
6392;SDS011;3229;42.674;23.282;2022-12-07T01:19:36;30.27;;;18.33;;
6392;SDS011;3229;42.674;23.282;2022-12-07T01:22:03;27.93;;;19.33;;
6392;SDS011;3229;42.674;23.282;2022-12-07T01:24:29;28.47;;;18.30;;
6392;SDS011;3229;42.674;23.282;2022-12-07T01:26:56;30.33;;;18.03;;
6392;SDS011;3229;42.674;23.282;2022-12-07T01:29:23;25.07;;;16.73;;
6392;SDS011;3229;42.674;23.282;2022-12-07T01:31:50;29.83;;;19.20;;
6392;SDS011;3229;42.674;23.282;2022-12-07T01:34:16;26.60;;;17.50;;
6392;SDS011;3229;42.674;23.282;2022-12-07T01:36:45;28.60;;;18.37;;
6392;SDS011;3229;42.674;23.282;2022-12-07T01:39:11;25.57;;;17.67;;
6392;SDS011;3229;42.674;23.282;2022-12-07T01:41:39;25.50;;;17.13;;
6392;SDS011;3229;42.674;23.282;2022-12-07T01:44:18;29.27;;;18.47;;
6392;SDS011;3229;42.674;23.282;2022-12-07T01:46:48;28.17;;;17.87;;
6392;SDS011;3229;42.674;23.282;2022-12-07T01:49:19;25.77;;;17.47;;
6392;SDS011;3229;42.674;23.282;2022-12-07T01:51:54;26.77;;;17.60;;
6392;SDS011;3229;42.674;23.282;2022-12-07T01:54:26;26.83;;;16.73;;
6392;SDS011;3229;42.674;23.282;2022-12-07T01:56:53;23.97;;;17.03;;
6392;SDS011;3229;42.674;23.282;2022-12-07T01:59:23;29.90;;;17.27;;
6392;SDS011;3229;42.674;23.282;2022-12-07T02:01:52;28.03;;;16.60;;
6392;SDS011;3229;42.674;23.282;2022-12-07T02:04:21;24.50;;;16.23;;
6392;SDS011;3229;42.674;23.282;2022-12-07T02:06:48;23.70;;;16.63;;
6392;SDS011;3229;42.674;23.282;2022-12-07T02:09:17;25.00;;;16.73;;
6392;SDS011;3229;42.674;23.282;2022-12-07T02:11:44;22.23;;;16.60;;
6392;SDS011;3229;42.674;23.282;2022-12-07T02:14:11;21.67;;;16.30;;
6392;SDS011;3229;42.674;23.282;2022-12-07T02:16:40;25.40;;;15.77;;
6392;SDS011;3229;42.674;23.282;2022-12-07T02:19:23;22.30;;;15.70;;
6392;SDS011;3229;42.674;23.282;2022-12-07T02:22:14;27.60;;;17.63;;
6392;SDS011;3229;42.674;23.282;2022-12-07T02:24:57;25.07;;;16.93;;
6392;SDS011;3229;42.674;23.282;2022-12-07T02:27:37;23.73;;;16.40;;
6392;SDS011;3229;42.674;23.282;2022-12-07T02:30:11;24.27;;;15.10;;
6392;SDS011;3229;42.674;23.282;2022-12-07T02:32:44;25.90;;;16.07;;
6392;SDS011;3229;42.674;23.282;2022-12-07T02:35:18;23.83;;;16.40;;
6392;SDS011;3229;42.674;23.282;2022-12-07T02:37:51;23.50;;;16.73;;
6392;SDS011;3229;42.674;23.282;2022-12-07T02:40:26;24.80;;;15.57;;
6392;SDS011;3229;42.674;23.282;2022-12-07T02:42:58;28.73;;;16.60;;
6392;SDS011;3229;42.674;23.282;2022-12-07T02:45:29;21.23;;;15.57;;
6392;SDS011;3229;42.674;23.282;2022-12-07T02:48:00;25.10;;;16.37;;
6392;SDS011;3229;42.674;23.282;2022-12-07T02:50:28;23.03;;;15.73;;
6392;SDS011;3229;42.674;23.282;2022-12-07T02:52:55;23.23;;;15.47;;
6392;SDS011;3229;42.674;23.282;2022-12-07T02:55:23;23.40;;;15.07;;
6392;SDS011;3229;42.674;23.282;2022-12-07T03:00:54;22.77;;;16.03;;
6392;SDS011;3229;42.674;23.282;2022-12-07T03:03:31;23.57;;;16.23;;
6392;SDS011;3229;42.674;23.282;2022-12-07T03:06:06;19.87;;;14.63;;
6392;SDS011;3229;42.674;23.282;2022-12-07T03:08:43;21.20;;;14.23;;
6392;SDS011;3229;42.674;23.282;2022-12-07T03:11:20;23.77;;;15.13;;
6392;SDS011;3229;42.674;23.282;2022-12-07T03:13:55;22.17;;;15.20;;
6392;SDS011;3229;42.674;23.282;2022-12-07T03:16:30;23.07;;;15.90;;
6392;SDS011;3229;42.674;23.282;2022-12-07T03:19:01;24.03;;;15.73;;
6392;SDS011;3229;42.674;23.282;2022-12-07T03:21:32;20.67;;;14.80;;
6392;SDS011;3229;42.674;23.282;2022-12-07T03:24:03;20.17;;;14.80;;
6392;SDS011;3229;42.674;23.282;2022-12-07T03:26:34;24.03;;;15.67;;
6392;SDS011;3229;42.674;23.282;2022-12-07T03:29:06;22.50;;;14.37;;
6392;SDS011;3229;42.674;23.282;2022-12-07T03:31:39;21.70;;;14.87;;
6392;SDS011;3229;42.674;23.282;2022-12-07T03:34:11;22.10;;;15.27;;
6392;SDS011;3229;42.674;23.282;2022-12-07T03:36:44;23.37;;;15.17;;
6392;SDS011;3229;42.674;23.282;2022-12-07T03:39:17;22.90;;;15.63;;
6392;SDS011;3229;42.674;23.282;2022-12-07T03:41:49;24.23;;;15.87;;
6392;SDS011;3229;42.674;23.282;2022-12-07T03:44:17;23.93;;;14.90;;
6392;SDS011;3229;42.674;23.282;2022-12-07T03:46:49;22.80;;;14.93;;
6392;SDS011;3229;42.674;23.282;2022-12-07T03:49:24;19.00;;;13.10;;
6392;SDS011;3229;42.674;23.282;2022-12-07T03:51:55;24.03;;;16.23;;
6392;SDS011;3229;42.674;23.282;2022-12-07T03:54:28;19.80;;;14.00;;
6392;SDS011;3229;42.674;23.282;2022-12-07T03:56:59;21.30;;;13.97;;
6392;SDS011;3229;42.674;23.282;2022-12-07T03:59:28;22.20;;;14.57;;
6392;SDS011;3229;42.674;23.282;2022-12-07T04:02:02;23.93;;;15.20;;
6392;SDS011;3229;42.674;23.282;2022-12-07T04:04:31;20.23;;;14.47;;
6392;SDS011;3229;42.674;23.282;2022-12-07T04:06:59;22.83;;;15.33;;
6392;SDS011;3229;42.674;23.282;2022-12-07T04:09:26;19.27;;;14.83;;
6392;SDS011;3229;42.674;23.282;2022-12-07T04:11:53;22.00;;;15.10;;
6392;SDS011;3229;42.674;23.282;2022-12-07T04:14:19;20.90;;;14.50;;
6392;SDS011;3229;42.674;23.282;2022-12-07T04:16:46;22.30;;;14.87;;
6392;SDS011;3229;42.674;23.282;2022-12-07T04:19:16;22.70;;;14.93;;
6392;SDS011;3229;42.674;23.282;2022-12-07T04:21:43;20.93;;;14.67;;
6392;SDS011;3229;42.674;23.282;2022-12-07T04:24:11;22.70;;;14.80;;
6392;SDS011;3229;42.674;23.282;2022-12-07T04:26:38;22.50;;;15.27;;
6392;SDS011;3229;42.674;23.282;2022-12-07T04:29:05;23.97;;;15.33;;
6392;SDS011;3229;42.674;23.282;2022-12-07T04:31:32;23.70;;;16.13;;
6392;SDS011;3229;42.674;23.282;2022-12-07T04:33:59;23.87;;;15.63;;
6392;SDS011;3229;42.674;23.282;2022-12-07T04:36:27;19.83;;;14.47;;
6392;SDS011;3229;42.674;23.282;2022-12-07T04:38:54;21.30;;;14.67;;
6392;SDS011;3229;42.674;23.282;2022-12-07T04:41:21;25.03;;;16.60;;
6392;SDS011;3229;42.674;23.282;2022-12-07T04:43:52;23.37;;;15.33;;
6392;SDS011;3229;42.674;23.282;2022-12-07T04:46:20;21.50;;;15.33;;
6392;SDS011;3229;42.674;23.282;2022-12-07T04:48:47;22.37;;;15.50;;
6392;SDS011;3229;42.674;23.282;2022-12-07T04:51:14;22.13;;;14.97;;
6392;SDS011;3229;42.674;23.282;2022-12-07T04:53:46;24.73;;;16.27;;
6392;SDS011;3229;42.674;23.282;2022-12-07T04:56:13;8.93;;;7.30;;
6392;SDS011;3229;42.674;23.282;2022-12-07T04:58:40;15.47;;;8.97;;
6392;SDS011;3229;42.674;23.282;2022-12-07T05:01:07;18.13;;;10.63;;
6392;SDS011;3229;42.674;23.282;2022-12-07T05:03:35;13.87;;;9.77;;
6392;SDS011;3229;42.674;23.282;2022-12-07T05:06:02;12.77;;;9.73;;
6392;SDS011;3229;42.674;23.282;2022-12-07T05:08:30;16.23;;;10.33;;
6392;SDS011;3229;42.674;23.282;2022-12-07T05:10:59;12.83;;;9.63;;
6392;SDS011;3229;42.674;23.282;2022-12-07T05:13:26;17.87;;;9.87;;
6392;SDS011;3229;42.674;23.282;2022-12-07T05:15:53;18.67;;;10.40;;
6392;SDS011;3229;42.674;23.282;2022-12-07T05:18:20;14.47;;;10.40;;
6392;SDS011;3229;42.674;23.282;2022-12-07T05:20:47;16.57;;;10.53;;
6392;SDS011;3229;42.674;23.282;2022-12-07T05:23:13;13.53;;;10.27;;
6392;SDS011;3229;42.674;23.282;2022-12-07T05:25:40;14.63;;;10.47;;
6392;SDS011;3229;42.674;23.282;2022-12-07T05:28:08;17.63;;;10.57;;
6392;SDS011;3229;42.674;23.282;2022-12-07T05:30:35;12.67;;;10.50;;
6392;SDS011;3229;42.674;23.282;2022-12-07T05:33:02;20.00;;;10.90;;
6392;SDS011;3229;42.674;23.282;2022-12-07T05:35:30;19.10;;;12.17;;
6392;SDS011;3229;42.674;23.282;2022-12-07T05:37:57;16.17;;;11.50;;
6392;SDS011;3229;42.674;23.282;2022-12-07T05:40:23;16.93;;;11.80;;
6392;SDS011;3229;42.674;23.282;2022-12-07T05:42:50;17.83;;;12.27;;
6392;SDS011;3229;42.674;23.282;2022-12-07T05:45:18;17.13;;;11.03;;
6392;SDS011;3229;42.674;23.282;2022-12-07T05:47:45;19.23;;;13.40;;
6392;SDS011;3229;42.674;23.282;2022-12-07T05:50:12;17.63;;;12.20;;
6392;SDS011;3229;42.674;23.282;2022-12-07T05:52:39;20.60;;;12.47;;
6392;SDS011;3229;42.674;23.282;2022-12-07T05:55:06;20.17;;;13.87;;
6392;SDS011;3229;42.674;23.282;2022-12-07T05:57:33;21.00;;;12.63;;
6392;SDS011;3229;42.674;23.282;2022-12-07T06:00:00;17.20;;;12.77;;
6392;SDS011;3229;42.674;23.282;2022-12-07T06:02:27;19.40;;;13.93;;
6392;SDS011;3229;42.674;23.282;2022-12-07T06:04:54;18.13;;;13.10;;
6392;SDS011;3229;42.674;23.282;2022-12-07T06:07:21;20.80;;;14.30;;
6392;SDS011;3229;42.674;23.282;2022-12-07T06:09:48;20.33;;;13.83;;
6392;SDS011;3229;42.674;23.282;2022-12-07T06:12:14;18.47;;;14.10;;
6392;SDS011;3229;42.674;23.282;2022-12-07T06:14:59;21.83;;;13.27;;
6392;SDS011;3229;42.674;23.282;2022-12-07T06:17:25;18.23;;;13.43;;
6392;SDS011;3229;42.674;23.282;2022-12-07T06:19:54;21.17;;;14.30;;
6392;SDS011;3229;42.674;23.282;2022-12-07T06:22:20;19.80;;;13.73;;
6392;SDS011;3229;42.674;23.282;2022-12-07T06:24:47;23.47;;;15.27;;
6392;SDS011;3229;42.674;23.282;2022-12-07T06:27:14;22.03;;;14.53;;
6392;SDS011;3229;42.674;23.282;2022-12-07T06:29:41;20.13;;;14.97;;
6392;SDS011;3229;42.674;23.282;2022-12-07T06:32:07;24.27;;;15.73;;
6392;SDS011;3229;42.674;23.282;2022-12-07T06:34:36;22.53;;;15.70;;
6392;SDS011;3229;42.674;23.282;2022-12-07T06:37:03;22.77;;;14.83;;
6392;SDS011;3229;42.674;23.282;2022-12-07T06:39:30;25.00;;;15.97;;
6392;SDS011;3229;42.674;23.282;2022-12-07T06:41:57;23.10;;;16.10;;
6392;SDS011;3229;42.674;23.282;2022-12-07T06:44:24;22.50;;;14.87;;
6392;SDS011;3229;42.674;23.282;2022-12-07T06:46:51;22.27;;;16.33;;
6392;SDS011;3229;42.674;23.282;2022-12-07T06:49:18;22.20;;;16.40;;
6392;SDS011;3229;42.674;23.282;2022-12-07T06:51:47;26.67;;;15.67;;
6392;SDS011;3229;42.674;23.282;2022-12-07T06:54:14;25.97;;;17.07;;
6392;SDS011;3229;42.674;23.282;2022-12-07T06:56:41;24.40;;;17.37;;
6392;SDS011;3229;42.674;23.282;2022-12-07T06:59:08;22.60;;;16.93;;
6392;SDS011;3229;42.674;23.282;2022-12-07T07:01:35;26.73;;;17.80;;
6392;SDS011;3229;42.674;23.282;2022-12-07T07:04:03;27.70;;;18.57;;
6392;SDS011;3229;42.674;23.282;2022-12-07T07:06:30;26.63;;;17.27;;
6392;SDS011;3229;42.674;23.282;2022-12-07T07:08:58;26.70;;;18.17;;
6392;SDS011;3229;42.674;23.282;2022-12-07T07:11:24;28.57;;;18.93;;
6392;SDS011;3229;42.674;23.282;2022-12-07T07:13:51;26.33;;;18.53;;
6392;SDS011;3229;42.674;23.282;2022-12-07T07:16:20;29.50;;;20.03;;
6392;SDS011;3229;42.674;23.282;2022-12-07T07:18:46;29.43;;;18.97;;
6392;SDS011;3229;42.674;23.282;2022-12-07T07:21:13;29.00;;;19.57;;
6392;SDS011;3229;42.674;23.282;2022-12-07T07:23:40;30.33;;;19.73;;
6392;SDS011;3229;42.674;23.282;2022-12-07T07:26:08;30.13;;;19.33;;
6392;SDS011;3229;42.674;23.282;2022-12-07T07:28:35;29.70;;;20.43;;
6392;SDS011;3229;42.674;23.282;2022-12-07T07:31:01;29.53;;;19.70;;
6392;SDS011;3229;42.674;23.282;2022-12-07T07:33:28;28.37;;;21.03;;
6392;SDS011;3229;42.674;23.282;2022-12-07T07:35:55;29.40;;;20.63;;
6392;SDS011;3229;42.674;23.282;2022-12-07T07:38:22;30.57;;;20.20;;
6392;SDS011;3229;42.674;23.282;2022-12-07T07:40:49;30.60;;;20.47;;
6392;SDS011;3229;42.674;23.282;2022-12-07T07:43:17;30.60;;;20.77;;
6392;SDS011;3229;42.674;23.282;2022-12-07T07:45:44;26.83;;;20.17;;
6392;SDS011;3229;42.674;23.282;2022-12-07T07:48:11;34.57;;;22.50;;
6392;SDS011;3229;42.674;23.282;2022-12-07T07:50:38;30.67;;;20.70;;
6392;SDS011;3229;42.674;23.282;2022-12-07T07:53:04;35.00;;;21.90;;
6392;SDS011;3229;42.674;23.282;2022-12-07T07:55:31;31.13;;;20.93;;
6392;SDS011;3229;42.674;23.282;2022-12-07T07:57:58;35.60;;;23.13;;
6392;SDS011;3229;42.674;23.282;2022-12-07T08:00:26;32.60;;;21.23;;
6392;SDS011;3229;42.674;23.282;2022-12-07T08:02:53;33.10;;;21.57;;
6392;SDS011;3229;42.674;23.282;2022-12-07T08:05:20;33.07;;;21.13;;
6392;SDS011;3229;42.674;23.282;2022-12-07T08:07:46;34.13;;;22.53;;
6392;SDS011;3229;42.674;23.282;2022-12-07T08:10:13;32.47;;;21.27;;
6392;SDS011;3229;42.674;23.282;2022-12-07T08:12:41;41.23;;;22.33;;
6392;SDS011;3229;42.674;23.282;2022-12-07T08:15:24;33.23;;;21.73;;
6392;SDS011;3229;42.674;23.282;2022-12-07T08:17:52;30.07;;;20.73;;
6392;SDS011;3229;42.674;23.282;2022-12-07T08:20:19;31.37;;;20.87;;
6392;SDS011;3229;42.674;23.282;2022-12-07T08:22:46;32.43;;;20.90;;
6392;SDS011;3229;42.674;23.282;2022-12-07T08:25:13;33.20;;;20.97;;
6392;SDS011;3229;42.674;23.282;2022-12-07T08:27:40;37.30;;;22.13;;
6392;SDS011;3229;42.674;23.282;2022-12-07T08:30:07;35.73;;;21.77;;
6392;SDS011;3229;42.674;23.282;2022-12-07T08:32:34;34.57;;;21.00;;
6392;SDS011;3229;42.674;23.282;2022-12-07T08:35:03;31.93;;;21.57;;
6392;SDS011;3229;42.674;23.282;2022-12-07T08:37:31;31.03;;;22.57;;
6392;SDS011;3229;42.674;23.282;2022-12-07T08:39:57;31.27;;;21.67;;
6392;SDS011;3229;42.674;23.282;2022-12-07T08:42:24;28.37;;;21.07;;
6392;SDS011;3229;42.674;23.282;2022-12-07T08:44:54;31.93;;;21.70;;
6392;SDS011;3229;42.674;23.282;2022-12-07T08:47:21;30.77;;;21.00;;
6392;SDS011;3229;42.674;23.282;2022-12-07T08:49:49;33.20;;;22.73;;
6392;SDS011;3229;42.674;23.282;2022-12-07T08:52:20;31.57;;;22.17;;
6392;SDS011;3229;42.674;23.282;2022-12-07T08:54:48;32.93;;;21.83;;
6392;SDS011;3229;42.674;23.282;2022-12-07T08:57:15;30.03;;;21.13;;
6392;SDS011;3229;42.674;23.282;2022-12-07T08:59:42;31.33;;;21.70;;
6392;SDS011;3229;42.674;23.282;2022-12-07T09:02:09;30.03;;;21.83;;
6392;SDS011;3229;42.674;23.282;2022-12-07T09:04:36;34.80;;;23.00;;
6392;SDS011;3229;42.674;23.282;2022-12-07T09:07:03;31.13;;;22.80;;
6392;SDS011;3229;42.674;23.282;2022-12-07T09:09:31;32.90;;;22.20;;
6392;SDS011;3229;42.674;23.282;2022-12-07T09:11:58;32.80;;;23.13;;
6392;SDS011;3229;42.674;23.282;2022-12-07T09:14:25;34.37;;;22.07;;
6392;SDS011;3229;42.674;23.282;2022-12-07T09:16:52;32.43;;;21.37;;
6392;SDS011;3229;42.674;23.282;2022-12-07T09:19:19;28.80;;;21.50;;
6392;SDS011;3229;42.674;23.282;2022-12-07T09:21:45;35.10;;;21.53;;
6392;SDS011;3229;42.674;23.282;2022-12-07T09:24:12;34.17;;;22.90;;
6392;SDS011;3229;42.674;23.282;2022-12-07T09:26:41;33.53;;;22.37;;
6392;SDS011;3229;42.674;23.282;2022-12-07T09:29:07;31.63;;;22.50;;
6392;SDS011;3229;42.674;23.282;2022-12-07T09:31:35;29.10;;;20.20;;
6392;SDS011;3229;42.674;23.282;2022-12-07T09:34:03;29.57;;;21.17;;
6392;SDS011;3229;42.674;23.282;2022-12-07T09:36:31;28.60;;;21.27;;
6392;SDS011;3229;42.674;23.282;2022-12-07T09:38:58;33.03;;;21.07;;
6392;SDS011;3229;42.674;23.282;2022-12-07T09:41:25;30.57;;;20.87;;
6392;SDS011;3229;42.674;23.282;2022-12-07T09:43:57;29.27;;;20.70;;
6392;SDS011;3229;42.674;23.282;2022-12-07T09:46:29;28.80;;;20.30;;
6392;SDS011;3229;42.674;23.282;2022-12-07T09:49:02;30.90;;;21.07;;
6392;SDS011;3229;42.674;23.282;2022-12-07T09:51:29;26.60;;;18.73;;
6392;SDS011;3229;42.674;23.282;2022-12-07T09:53:56;27.27;;;19.80;;
6392;SDS011;3229;42.674;23.282;2022-12-07T09:56:25;31.60;;;20.77;;
6392;SDS011;3229;42.674;23.282;2022-12-07T09:58:58;32.70;;;19.23;;
6392;SDS011;3229;42.674;23.282;2022-12-07T10:01:28;27.30;;;19.60;;
6392;SDS011;3229;42.674;23.282;2022-12-07T10:03:59;33.63;;;20.43;;
6392;SDS011;3229;42.674;23.282;2022-12-07T10:06:32;30.20;;;20.83;;
6392;SDS011;3229;42.674;23.282;2022-12-07T10:08:58;33.07;;;21.17;;
6392;SDS011;3229;42.674;23.282;2022-12-07T10:11:25;23.67;;;17.43;;
6392;SDS011;3229;42.674;23.282;2022-12-07T10:13:52;28.87;;;20.70;;
6392;SDS011;3229;42.674;23.282;2022-12-07T10:16:31;28.50;;;20.00;;
6392;SDS011;3229;42.674;23.282;2022-12-07T10:19:20;31.80;;;19.50;;
6392;SDS011;3229;42.674;23.282;2022-12-07T10:22:07;27.50;;;19.47;;
6392;SDS011;3229;42.674;23.282;2022-12-07T10:24:37;25.20;;;17.90;;
6392;SDS011;3229;42.674;23.282;2022-12-07T10:27:10;25.57;;;18.47;;
6392;SDS011;3229;42.674;23.282;2022-12-07T10:29:46;27.43;;;19.30;;
6392;SDS011;3229;42.674;23.282;2022-12-07T10:32:27;23.47;;;16.50;;
6392;SDS011;3229;42.674;23.282;2022-12-07T10:35:15;25.93;;;17.90;;
6392;SDS011;3229;42.674;23.282;2022-12-07T10:37:46;28.03;;;18.30;;
6392;SDS011;3229;42.674;23.282;2022-12-07T10:40:23;31.83;;;18.40;;
6392;SDS011;3229;42.674;23.282;2022-12-07T10:43:00;28.87;;;18.30;;
6392;SDS011;3229;42.674;23.282;2022-12-07T10:45:32;24.63;;;18.20;;
6392;SDS011;3229;42.674;23.282;2022-12-07T10:48:02;26.83;;;18.07;;
6392;SDS011;3229;42.674;23.282;2022-12-07T10:50:47;27.27;;;17.57;;
6392;SDS011;3229;42.674;23.282;2022-12-07T10:53:28;22.87;;;17.30;;
6392;SDS011;3229;42.674;23.282;2022-12-07T10:56:08;24.43;;;17.07;;
6392;SDS011;3229;42.674;23.282;2022-12-07T10:58:57;23.03;;;17.10;;
6392;SDS011;3229;42.674;23.282;2022-12-07T11:01:37;26.80;;;17.47;;
6392;SDS011;3229;42.674;23.282;2022-12-07T11:04:17;23.57;;;17.07;;
6392;SDS011;3229;42.674;23.282;2022-12-07T11:06:53;24.90;;;16.37;;
6392;SDS011;3229;42.674;23.282;2022-12-07T11:09:47;23.67;;;17.20;;
6392;SDS011;3229;42.674;23.282;2022-12-07T11:12:25;25.00;;;16.97;;
6392;SDS011;3229;42.674;23.282;2022-12-07T11:15:00;27.20;;;18.07;;
6392;SDS011;3229;42.674;23.282;2022-12-07T11:17:32;26.43;;;16.40;;
6392;SDS011;3229;42.674;23.282;2022-12-07T11:20:14;23.73;;;15.43;;
6392;SDS011;3229;42.674;23.282;2022-12-07T11:22:57;23.13;;;15.87;;
6392;SDS011;3229;42.674;23.282;2022-12-07T11:25:31;26.60;;;16.23;;
6392;SDS011;3229;42.674;23.282;2022-12-07T11:28:04;22.23;;;16.03;;
6392;SDS011;3229;42.674;23.282;2022-12-07T11:30:46;21.77;;;15.33;;
6392;SDS011;3229;42.674;23.282;2022-12-07T11:33:26;20.33;;;14.23;;
6392;SDS011;3229;42.674;23.282;2022-12-07T11:36:00;24.70;;;15.90;;
6392;SDS011;3229;42.674;23.282;2022-12-07T11:38:37;23.73;;;15.00;;
6392;SDS011;3229;42.674;23.282;2022-12-07T11:41:10;22.23;;;14.50;;
6392;SDS011;3229;42.674;23.282;2022-12-07T11:43:41;19.20;;;14.03;;
6392;SDS011;3229;42.674;23.282;2022-12-07T11:46:19;18.63;;;13.63;;
6392;SDS011;3229;42.674;23.282;2022-12-07T11:48:51;21.67;;;14.30;;
6392;SDS011;3229;42.674;23.282;2022-12-07T11:51:25;20.20;;;15.17;;
6392;SDS011;3229;42.674;23.282;2022-12-07T11:53:52;18.67;;;13.80;;
6392;SDS011;3229;42.674;23.282;2022-12-07T11:56:23;20.33;;;13.70;;
6392;SDS011;3229;42.674;23.282;2022-12-07T11:58:54;17.10;;;13.87;;
6392;SDS011;3229;42.674;23.282;2022-12-07T12:01:26;19.80;;;13.80;;
6392;SDS011;3229;42.674;23.282;2022-12-07T12:04:04;21.03;;;14.00;;
6392;SDS011;3229;42.674;23.282;2022-12-07T12:06:43;19.43;;;13.60;;
6392;SDS011;3229;42.674;23.282;2022-12-07T12:09:11;19.27;;;13.83;;
6392;SDS011;3229;42.674;23.282;2022-12-07T12:11:47;21.93;;;13.90;;
6392;SDS011;3229;42.674;23.282;2022-12-07T12:14:35;18.17;;;13.33;;
6392;SDS011;3229;42.674;23.282;2022-12-07T12:20:05;17.07;;;13.23;;
6392;SDS011;3229;42.674;23.282;2022-12-07T12:22:45;19.90;;;12.37;;
6392;SDS011;3229;42.674;23.282;2022-12-07T12:25:19;18.73;;;12.77;;
6392;SDS011;3229;42.674;23.282;2022-12-07T12:27:49;20.53;;;13.77;;
6392;SDS011;3229;42.674;23.282;2022-12-07T12:33:03;18.17;;;13.20;;
6392;SDS011;3229;42.674;23.282;2022-12-07T12:35:33;20.80;;;12.90;;
6392;SDS011;3229;42.674;23.282;2022-12-07T12:38:26;18.57;;;12.20;;
6392;SDS011;3229;42.674;23.282;2022-12-07T12:40:59;18.77;;;12.50;;
6392;SDS011;3229;42.674;23.282;2022-12-07T12:43:43;16.70;;;12.10;;
6392;SDS011;3229;42.674;23.282;2022-12-07T12:55:13;16.43;;;11.37;;
6392;SDS011;3229;42.674;23.282;2022-12-07T12:57:46;19.37;;;12.20;;
6392;SDS011;3229;42.674;23.282;2022-12-07T13:00:17;19.90;;;12.23;;
6392;SDS011;3229;42.674;23.282;2022-12-07T13:02:48;18.90;;;12.23;;
6392;SDS011;3229;42.674;23.282;2022-12-07T13:05:18;16.73;;;12.13;;
6392;SDS011;3229;42.674;23.282;2022-12-07T13:07:53;17.90;;;11.57;;
6392;SDS011;3229;42.674;23.282;2022-12-07T13:10:39;15.30;;;10.97;;
6392;SDS011;3229;42.674;23.282;2022-12-07T13:22:32;18.80;;;12.33;;
6392;SDS011;3229;42.674;23.282;2022-12-07T13:25:11;15.17;;;11.60;;
6392;SDS011;3229;42.674;23.282;2022-12-07T13:27:47;15.27;;;11.87;;
6392;SDS011;3229;42.674;23.282;2022-12-07T13:30:22;16.83;;;10.87;;
6392;SDS011;3229;42.674;23.282;2022-12-07T13:32:51;13.80;;;11.00;;
6392;SDS011;3229;42.674;23.282;2022-12-07T13:35:32;18.13;;;11.67;;
6392;SDS011;3229;42.674;23.282;2022-12-07T13:38:02;15.47;;;11.47;;
6392;SDS011;3229;42.674;23.282;2022-12-07T13:40:32;15.77;;;11.40;;
6392;SDS011;3229;42.674;23.282;2022-12-07T13:43:01;15.80;;;11.00;;
6392;SDS011;3229;42.674;23.282;2022-12-07T13:45:30;17.33;;;11.43;;
6392;SDS011;3229;42.674;23.282;2022-12-07T13:48:14;18.93;;;11.30;;
6392;SDS011;3229;42.674;23.282;2022-12-07T13:50:52;17.23;;;11.00;;
6392;SDS011;3229;42.674;23.282;2022-12-07T13:53:20;16.30;;;11.03;;
6392;SDS011;3229;42.674;23.282;2022-12-07T13:55:48;15.33;;;10.17;;
6392;SDS011;3229;42.674;23.282;2022-12-07T13:58:16;13.87;;;9.87;;
6392;SDS011;3229;42.674;23.282;2022-12-07T14:00:43;13.03;;;9.97;;
6392;SDS011;3229;42.674;23.282;2022-12-07T14:03:31;14.70;;;9.57;;
6392;SDS011;3229;42.674;23.282;2022-12-07T14:06:03;12.60;;;9.90;;
6392;SDS011;3229;42.674;23.282;2022-12-07T14:08:41;20.63;;;10.20;;
6392;SDS011;3229;42.674;23.282;2022-12-07T14:11:09;14.07;;;10.63;;
6392;SDS011;3229;42.674;23.282;2022-12-07T14:13:47;13.60;;;9.63;;
6392;SDS011;3229;42.674;23.282;2022-12-07T14:16:23;13.53;;;10.37;;
6392;SDS011;3229;42.674;23.282;2022-12-07T14:18:53;15.70;;;10.30;;
6392;SDS011;3229;42.674;23.282;2022-12-07T14:21:21;14.83;;;9.87;;
6392;SDS011;3229;42.674;23.282;2022-12-07T14:24:04;13.57;;;9.13;;
6392;SDS011;3229;42.674;23.282;2022-12-07T14:26:36;16.23;;;9.63;;
6392;SDS011;3229;42.674;23.282;2022-12-07T14:31:59;14.93;;;9.23;;
6392;SDS011;3229;42.674;23.282;2022-12-07T14:34:42;14.27;;;10.10;;
6392;SDS011;3229;42.674;23.282;2022-12-07T14:37:19;14.00;;;9.77;;
6392;SDS011;3229;42.674;23.282;2022-12-07T14:39:46;15.40;;;9.93;;
6392;SDS011;3229;42.674;23.282;2022-12-07T14:42:13;14.30;;;9.13;;
6392;SDS011;3229;42.674;23.282;2022-12-07T14:44:42;12.43;;;8.83;;
6392;SDS011;3229;42.674;23.282;2022-12-07T14:47:09;17.03;;;9.17;;
6392;SDS011;3229;42.674;23.282;2022-12-07T14:49:37;16.80;;;8.90;;
6392;SDS011;3229;42.674;23.282;2022-12-07T14:52:04;13.67;;;9.20;;
6392;SDS011;3229;42.674;23.282;2022-12-07T14:54:32;11.43;;;8.50;;
6392;SDS011;3229;42.674;23.282;2022-12-07T14:56:59;15.57;;;9.33;;
6392;SDS011;3229;42.674;23.282;2022-12-07T14:59:26;12.20;;;8.93;;
6392;SDS011;3229;42.674;23.282;2022-12-07T15:01:54;20.13;;;9.53;;
6392;SDS011;3229;42.674;23.282;2022-12-07T15:04:21;20.90;;;9.60;;
6392;SDS011;3229;42.674;23.282;2022-12-07T15:06:54;12.73;;;9.20;;
6392;SDS011;3229;42.674;23.282;2022-12-07T15:09:22;13.90;;;9.20;;
6392;SDS011;3229;42.674;23.282;2022-12-07T15:11:49;15.17;;;9.40;;
6392;SDS011;3229;42.674;23.282;2022-12-07T15:14:15;14.17;;;9.00;;
6392;SDS011;3229;42.674;23.282;2022-12-07T15:16:42;12.30;;;8.80;;
6392;SDS011;3229;42.674;23.282;2022-12-07T15:19:12;13.63;;;9.60;;
6392;SDS011;3229;42.674;23.282;2022-12-07T15:21:41;14.50;;;9.00;;
6392;SDS011;3229;42.674;23.282;2022-12-07T15:24:08;12.60;;;9.40;;